West Vancouver, Canada
Current Conditions -  °F | °C
As of 3:00 AM on Friday 24 Oct 2014 (Local Time) from CYVR Reporting Station
Overcast Overcast  
Wind Chill: 50°   Ceiling: 3800
Heat Index: 50°   Visibility: 15mi
Dew Point: 46°   Wind: 7mph
Humidity: 87%   Direction: 60°ENE
Pressure: 30.02"   Gusts: NA
Location:  49.33°N, 123.16°W
Report Text: CYVR 241000Z 06006KT 15SM BKN038 BKN048 OVC077 10/08 A3002 RMK SC5SC2AC1 SLP167
Loading
Personal Weather Stations






























Interactive Weather Map
Tropical Storm Tracking
New forecast layout! Learn more

10-Day Weather Forecast

Advertisements
Track Severe Weather on mobile